Flight Track Log - Related Links

Times and Time Zones

All times are in EDT time to prevent confusion due to time zone crossing. See the CHQ6103 flight status page for this flight to view local times or setup timezone preferences in your user account.

Time Position Orientation Groundspeed Altitude Reporting Facility
EDT Latitude Longitude Course Direction KTS MPH feet Rate Location/Type
Mon 07:36:38 AM 40.8167 -73.8667 275° West 162 186 1,900  Level New York TRACON
Mon 07:37:38 AM 40.8667 -73.8833 346° North 200 230 4,200 2,500 Climbing New York TRACON
Mon 07:38:38 AM 40.9333 -73.9167 339° North 239 275 6,900 2,500 Climbing New York TRACON
Mon 07:39:00 AM 40.8293 -74.3555 277° West  Level FlightAware Approximate
Mon 07:39:38 AM 40.9333 -74.0000 270° West 246 283 9,200  Level New York TRACON
Mon 07:40:00 AM 40.8392 -74.4815 275° West  Level FlightAware Approximate
Mon 07:40:38 AM 40.9167 -74.0833 255° West 268 308 11,100  Level New York TRACON
Mon 07:41:00 AM 40.8482 -74.6076 275° West  Level FlightAware Approximate
Mon 07:41:38 AM 40.9167 -74.2000 270° West 308 354 12,200  Level New York TRACON
Mon 07:42:38 AM 40.9167 -74.3167 270° West 341 392 13,100 911 Climbing New York TRACON
Mon 07:43:30 AM 40.9219 -74.4208 274° West 355 409 13,900 1,009 Climbing New York Center
Mon 07:44:31 AM 40.9217 -74.5636 270° West 365 420 15,000 1,000 Climbing New York Center
Mon 07:45:30 AM 40.9219 -74.6817 270° West 365 420 15,900 1,017 Climbing New York Center
Mon 07:46:29 AM 40.9211 -74.8272 270° West 365 420 17,000 793 Climbing New York Center
Mon 07:47:31 AM 40.9019 -74.9550 259° West 376 433 17,500 689 Climbing New York Center
Mon 07:48:31 AM 40.8786 -75.0881 257° West 386 444 18,400 958 Climbing New York Center
Mon 07:49:30 AM 40.8547 -75.2211 257° West 386 444 19,400 1,068 Climbing New York Center
Mon 07:50:29 AM 40.8286 -75.3592 256° West 391 450 20,500 1,050 Climbing New York Center
Mon 07:51:30 AM 40.8025 -75.4972 256° West 391 450 21,500 1,000 Climbing New York Center
Mon 07:52:29 AM 40.7756 -75.6433 256° West 391 450 22,500 992 Climbing New York Center
Mon 07:53:31 AM 40.7511 -75.7814 257° West 391 450 23,500 992 Climbing New York Center
Mon 07:54:30 AM 40.7264 -75.9192 257° West 391 450 24,500 1,000 Climbing New York Center
Mon 07:55:31 AM 40.6997 -76.0539 255° West 391 450 25,500 1,000 Climbing New York Center
Mon 07:56:30 AM 40.6725 -76.1914 255° West 391 450 26,500 1,008 Climbing New York Center
Mon 07:57:30 AM 40.6767 -76.3314 272° West 377 434 27,500 756 Climbing New York Center
Mon 07:58:29 AM 40.6972 -76.4672 281° West 382 440 28,000 250 Climbing New York Center
Mon 07:59:30 AM 40.7194 -76.6089 282° West 388 447 28,000  Level New York Center
Mon 08:00:30 AM 40.7414 -76.7558 281° West 404 465 28,000  Level New York Center
Mon 08:01:29 AM 40.7628 -76.9083 281° West 416 479 28,000  Level New York Center
Mon 08:02:31 AM 40.7839 -77.0583 281° West 421 484 28,000  Level New York Center
Mon 08:03:32 AM 40.8050 -77.2083 281° West 416 479 28,000  Level New York Center
Mon 08:04:30 AM 40.8236 -77.3253 282° West 416 479 28,000  Level New York Center
Mon 08:05:15 AM 40.8414 -77.4433 281° West 409 471 28,000  Level Cleveland Center
Mon 08:06:17 AM 40.8617 -77.5897 280° West 408 470 28,000  Level Cleveland Center
Mon 08:07:19 AM 40.8853 -77.7656 280° West 408 470 28,000  Level Cleveland Center
Mon 08:08:21 AM 40.9053 -77.9125 280° West 409 471 28,000  Level Cleveland Center
Mon 08:09:23 AM 40.9272 -78.0597 281° West 409 471 28,000  Level Cleveland Center
Mon 08:10:25 AM 40.9517 -78.2072 282° West 411 473 28,000  Level Cleveland Center
Mon 08:11:27 AM 40.9772 -78.3656 282° West 412 474 28,000  Level Cleveland Center
Mon 08:12:30 AM 41.0006 -78.5131 282° West 412 474 28,000  Level Cleveland Center
Mon 08:13:32 AM 41.0267 -78.6633 283° West 419 482 28,000  Level Cleveland Center
Mon 08:14:34 AM 41.0558 -78.8433 282° West 421 484 28,000  Level Cleveland Center
Mon 08:15:36 AM 41.0794 -78.9903 282° West 416 479 28,000  Level Cleveland Center
Mon 08:16:38 AM 41.1019 -79.1383 281° West 413 475 28,000  Level Cleveland Center
Mon 08:17:40 AM 41.1250 -79.2853 282° West 413 475 28,000  Level Cleveland Center
Mon 08:18:42 AM 41.1475 -79.4328 281° West 411 473 28,000 -387 Level Cleveland Center
Mon 08:19:44 AM 41.1744 -79.6111 281° West 411 473 27,200 -864 Descending Cleveland Center
Mon 08:20:47 AM 41.1972 -79.7564 282° West 410 472 26,200 -960 Descending Cleveland Center
Mon 08:21:49 AM 41.2189 -79.9039 281° West 410 472 25,200 -968 Descending Cleveland Center
Mon 08:22:51 AM 41.2411 -80.0522 281° West 410 472 24,200 -581 Descending Cleveland Center
Mon 08:23:53 AM 41.2633 -80.1997 281° West 410 472 24,000 -1,065 Descending Cleveland Center
Mon 08:24:55 AM 41.2883 -80.3739 281° West 408 470 22,000 -1,935 Descending Cleveland Center
Mon 08:25:57 AM 41.3094 -80.5189 281° West 406 467 20,000 -1,984 Descending Cleveland Center
Mon 08:26:59 AM 41.3306 -80.6603 281° West 397 457 17,900 -1,984 Descending Cleveland Center
Mon 08:28:01 AM 41.3758 -80.7847 296° West 381 438 15,900 -2,080 Descending Cleveland Center
Mon 08:28:14 AM 41.3892 -80.8244 294° West 378 435 15,300 -1,935 Descending Cleveland Center
Mon 08:29:03 AM 41.4219 -80.9067 298° West 374 430 13,900 -2,000 Descending Cleveland Center
Mon 08:29:14 AM 41.4356 -80.9456 295° West 367 422 13,300 -1,905 Descending Cleveland Center
Mon 08:30:06 AM 41.4661 -81.0258 297° West 367 422 11,900 -1,684 Descending Cleveland Center
Mon 08:31:08 AM 41.5139 -81.1636 295° West 345 397 10,100 -919 Descending Cleveland Center
Mon 08:32:10 AM 41.5031 -81.2789 263° West 315 362 10,000 -48 Descending Cleveland Center
Mon 08:33:12 AM 41.4864 -81.3883 259° West 305 351 10,000  Level Cleveland Center
Mon 08:34:11 AM 41.4697 -81.5169 260° West 307 353 10,000  Level Cleveland Center
Mon 08:35:12 AM 41.4533 -81.6314 259° West 316 364 10,000 -472 Level Cleveland Center
Mon 08:36:18 AM 41.4044 -81.7197 234° Southwest 290 334 9,000 -1,323 Descending Cleveland Center
Mon 08:37:19 AM 41.3525 -81.7908 226° Southwest 258 297 7,200 -1,776 Descending Cleveland Center
Mon 08:38:23 AM 41.3019 -81.8606 226° Southwest 267 307 5,300 -1,721 Descending Cleveland Center
Mon 08:39:21 AM 41.2592 -81.9372 233° Southwest 261 300 3,700 -1,220 Descending Cleveland Center
Mon 08:40:21 AM 41.3053 -81.9839 323° Northwest 212 244 2,900 -645 Descending Cleveland Center
Mon 08:41:22 AM 41.3453 -81.9597 24° Northeast 153 176 2,400 -444 Descending Cleveland Center
Mon 08:41:42 AM 41.3503 -81.9511 52° Northeast 144 166 2,300 -700 Descending Cleveland Center
Mon 08:42:22 AM 41.3700 -81.9192 51° Northeast 128 147 1,700 -871 Descending Cleveland Center
Mon 08:42:44 AM 41.3792 -81.9069 45° Northeast 133 153 1,400 -716 Descending Cleveland Center
Mon 08:43:29 AM 41.3969 -81.8789 50° Northeast 128 147 900 -290 Descending Cleveland Center
Mon 08:43:46 AM 41.4006 -81.8733 49° Northeast 133 153 1,100 706 Climbing Cleveland Center

Login

Don't have an account? Register now (free) for customized features, flight alerts, and more!